Terminal Aerodrome Forecast
Issued by NWS

Home | Current Version | Previous Version | Text Only | Print | Product List | Glossary Off
Versions: 1 2 3 4 5 6 7 8 9 10 11 12 13 14 15 16 17 18 19 20 21

051
FTUS43 KABR 211738
TAFATY
TAF
KATY 211738Z 2118/2218 02011KT P6SM BKN090
     FM212100 03011KT P6SM SCT110
     FM220300 06007KT P6SM SCT250
     FM220600 08007KT P6SM BKN110
     FM221000 13008KT P6SM OVC080
     FM221400 14012KT P6SM OVC045
     FM221500 15013G21KT P6SM -SN OVC045
     FM221700 15014G23KT 5SM -SN OVC030=

USA.gov is the U.S. government's official web portal to all federal, state and local government web resources and services.